createdAt,value
2023-05-11T00:01:34.905Z,98138.97
2023-05-11T00:05:52.226Z,98134.44
2023-05-11T00:10:10.464Z,98138.50
2023-05-11T00:14:28.257Z,98144.06
2023-05-11T00:18:45.891Z,98138.50
2023-05-11T00:23:03.847Z,98144.50
2023-05-11T00:27:21.356Z,98146.88
2023-05-11T00:31:40.165Z,98135.31
2023-05-11T00:35:57.821Z,98146.88
2023-05-11T00:40:15.939Z,98148.81
2023-05-11T00:44:33.564Z,98137.94
2023-05-11T00:48:51.534Z,98145.97
2023-05-11T00:53:09.348Z,98138.16
2023-05-11T00:57:27.449Z,98138.28
2023-05-11T01:01:45.502Z,98145.63
2023-05-11T01:06:16.478Z,98139.31
2023-05-11T01:10:49.130Z,98137.59
2023-05-11T01:15:12.834Z,98127.41
2023-05-11T01:19:49.839Z,98145.41
2023-05-11T01:24:39.190Z,98136.16
2023-05-11T01:29:11.644Z,98132.41
2023-05-11T01:33:34.085Z,98139.63
2023-05-11T01:37:57.568Z,98143.38
2023-05-11T01:42:16.535Z,98140.53
2023-05-11T01:46:34.802Z,98144.41
2023-05-11T01:50:54.312Z,98138.25
2023-05-11T01:55:13.849Z,98136.59
2023-05-11T01:59:33.496Z,98133.63
2023-05-11T02:03:52.665Z,98137.81
2023-05-11T02:08:12.088Z,98143.25
2023-05-11T02:12:31.429Z,98141.44
2023-05-11T02:16:50.726Z,98137.81
2023-05-11T02:21:12.128Z,98140.28
2023-05-11T02:25:31.453Z,98147.88
2023-05-11T02:29:49.317Z,98145.94
2023-05-11T02:34:19.800Z,98144.28
2023-05-11T02:38:39.638Z,98145.38
2023-05-11T02:43:11.644Z,98148.53
2023-05-11T02:47:33.643Z,98147.16
2023-05-11T02:51:55.062Z,98142.13
2023-05-11T02:56:13.758Z,98143.75
2023-05-11T03:00:31.502Z,98144.38
2023-05-11T03:04:49.284Z,98146.22
2023-05-11T03:09:09.342Z,98145.19
2023-05-11T03:13:29.068Z,98149.97
2023-05-11T03:17:46.819Z,98154.03
2023-05-11T03:22:05.304Z,98148.78
2023-05-11T03:26:24.172Z,98153.59
2023-05-11T03:30:45.230Z,98157.59
2023-05-11T03:35:03.248Z,98164.75
2023-05-11T03:39:23.851Z,98159.91
2023-05-11T03:43:42.358Z,98153.69
2023-05-11T03:48:00.845Z,98161.69
2023-05-11T03:52:20.685Z,98161.97
2023-05-11T03:56:40.595Z,98167.53
2023-05-11T04:00:58.208Z,98163.09
2023-05-11T04:05:16.168Z,98177.72
2023-05-11T04:09:33.671Z,98163.88
2023-05-11T04:13:51.312Z,98166.25
2023-05-11T04:18:08.970Z,98170.34
2023-05-11T04:22:26.646Z,98169.69
2023-05-11T04:26:44.182Z,98169.00
2023-05-11T04:31:02.087Z,98174.66
2023-05-11T04:35:19.639Z,98174.44
2023-05-11T04:39:37.690Z,98173.78
2023-05-11T04:43:55.189Z,98177.53
2023-05-11T04:48:13.819Z,98185.91
2023-05-11T04:52:31.454Z,98181.72
2023-05-11T04:56:49.290Z,98188.63
2023-05-11T05:01:06.809Z,98193.06
2023-05-11T05:05:24.492Z,98192.59
2023-05-11T05:09:44.481Z,98186.16
2023-05-11T05:14:02.934Z,98193.75
2023-05-11T05:18:20.449Z,98180.03
2023-05-11T05:22:38.139Z,98183.22
2023-05-11T05:26:56.306Z,98178.38
2023-05-11T05:31:13.854Z,98182.66
2023-05-11T05:35:31.240Z,98178.91
2023-05-11T05:39:48.934Z,98181.53
2023-05-11T05:44:06.588Z,98176.44
2023-05-11T05:48:24.156Z,98166.78
2023-05-11T05:52:42.203Z,98186.66
2023-05-11T05:56:59.824Z,98184.16
2023-05-11T06:01:17.568Z,98193.56
2023-05-11T06:05:35.130Z,98190.50
2023-05-11T06:09:52.883Z,98191.88
2023-05-11T06:14:10.534Z,98185.72
2023-05-11T06:18:28.254Z,98192.19
2023-05-11T06:22:45.787Z,98190.59
2023-05-11T06:27:04.804Z,98197.66
2023-05-11T06:31:23.422Z,98198.69
2023-05-11T06:35:41.373Z,98195.16
2023-05-11T06:39:59.594Z,98195.63
2023-05-11T06:44:17.211Z,98195.72
2023-05-11T06:48:34.766Z,98197.53
2023-05-11T06:52:52.556Z,98194.34
2023-05-11T06:57:10.481Z,98192.53
2023-05-11T07:01:29.584Z,98193.91
2023-05-11T07:05:47.419Z,98199.81
2023-05-11T07:10:06.967Z,98192.53
2023-05-11T07:14:24.562Z,98188.94
2023-05-11T07:18:42.401Z,98185.28
2023-05-11T07:23:00.021Z,98178.72
2023-05-11T07:27:17.802Z,98186.09
2023-05-11T07:31:36.630Z,98190.50
2023-05-11T07:35:55.037Z,98185.75
2023-05-11T07:40:12.677Z,98194.34
2023-05-11T07:44:30.547Z,98184.16
2023-05-11T07:48:48.251Z,98191.31
2023-05-11T07:53:06.152Z,98195.94
2023-05-11T07:57:23.813Z,98186.31
2023-05-11T08:01:41.694Z,98192.19
2023-05-11T08:05:59.310Z,98193.16
2023-05-11T08:10:17.287Z,98190.28
2023-05-11T08:14:34.894Z,98191.34
2023-05-11T08:18:52.734Z,98190.66
2023-05-11T08:23:11.125Z,98192.53
2023-05-11T08:27:30.503Z,98190.88
2023-05-11T08:31:49.678Z,98175.69
2023-05-11T08:36:07.834Z,98180.47
2023-05-11T08:40:27.223Z,98186.03
2023-05-11T08:44:45.601Z,98175.78
2023-05-11T08:49:03.335Z,98180.22
2023-05-11T08:53:21.596Z,98186.13
2023-05-11T08:57:39.072Z,98169.19
2023-05-11T09:02:03.550Z,98180.66
2023-05-11T09:06:27.296Z,98174.06
2023-05-11T09:10:45.532Z,98185.19
2023-05-11T09:15:03.213Z,98175.88
2023-05-11T09:19:21.407Z,98179.75
2023-05-11T09:23:43.196Z,98177.78
2023-05-11T09:28:01.481Z,98179.63
2023-05-11T09:32:19.164Z,98173.25
2023-05-11T09:36:37.172Z,98178.66
2023-05-11T09:40:56.784Z,98177.41
2023-05-11T09:45:14.589Z,98184.69
2023-05-11T09:49:33.357Z,98177.03
2023-05-11T09:53:51.253Z,98164.13
2023-05-11T09:58:10.245Z,98168.63
2023-05-11T10:02:31.166Z,98172.81
2023-05-11T10:06:57.687Z,98168.34
2023-05-11T10:11:15.745Z,98168.13
2023-05-11T10:15:33.489Z,98169.94
2023-05-11T10:19:55.185Z,98165.41
2023-05-11T10:24:17.212Z,98161.63
2023-05-11T10:28:38.241Z,98162.66
2023-05-11T10:32:57.690Z,98156.06
2023-05-11T10:37:16.997Z,98155.16
2023-05-11T10:41:52.728Z,98156.22
2023-05-11T10:46:40.110Z,98164.00
2023-05-11T10:51:36.440Z,98159.16
2023-05-11T10:56:21.048Z,98146.47
2023-05-11T11:00:56.797Z,98152.28
2023-05-11T11:05:18.282Z,98149.50
2023-05-11T11:10:00.345Z,98145.22
2023-05-11T11:14:22.548Z,98140.81
2023-05-11T11:18:40.202Z,98127.88
2023-05-11T11:22:58.567Z,98147.63
2023-05-11T11:27:16.479Z,98153.72
2023-05-11T11:31:35.734Z,98135.00
2023-05-11T11:35:53.531Z,98158.38
2023-05-11T11:40:15.251Z,98160.19
2023-05-11T11:44:35.164Z,98154.53
2023-05-11T11:49:06.305Z,98168.22
2023-05-11T11:53:40.968Z,98207.78
2023-05-11T11:57:59.009Z,98223.19
2023-05-11T12:02:16.976Z,98260.63
2023-05-11T12:06:40.189Z,98154.84
2023-05-11T12:10:58.937Z,98274.59
2023-05-11T12:15:30.588Z,98210.09
2023-05-11T12:19:48.068Z,98264.06
2023-05-11T12:24:06.626Z,98253.13
2023-05-11T12:28:24.277Z,98237.16
2023-05-11T12:32:42.361Z,98218.09
2023-05-11T12:37:01.735Z,98199.56
2023-05-11T12:41:24.034Z,98235.56
2023-05-11T12:45:41.616Z,98189.41
2023-05-11T12:49:59.314Z,98140.22
2023-05-11T12:54:29.513Z,98137.28
2023-05-11T12:58:47.361Z,98070.16
2023-05-11T13:03:04.606Z,98131.47
2023-05-11T13:07:28.260Z,98083.06
2023-05-11T13:11:46.014Z,98154.75
2023-05-11T13:16:05.562Z,98239.44
2023-05-11T13:20:27.643Z,98354.19
2023-05-11T13:24:45.439Z,98487.22
2023-05-11T13:29:10.920Z,98144.03
2023-05-11T13:33:29.470Z,98863.31
2023-05-11T13:37:47.207Z,99052.16
2023-05-11T13:42:04.998Z,99331.97
2023-05-11T13:46:22.569Z,98385.81
2023-05-11T13:50:40.406Z,98506.41
2023-05-11T13:54:57.877Z,99845.31
2023-05-11T13:59:15.895Z,99883.47
2023-05-11T14:03:33.636Z,99820.03
2023-05-11T14:07:51.567Z,99659.19
2023-05-11T14:12:09.216Z,99619.47
2023-05-11T14:16:27.270Z,99421.06
2023-05-11T14:20:44.816Z,99248.00
2023-05-11T14:25:02.530Z,98512.50
2023-05-11T14:29:20.223Z,98093.41
2023-05-11T14:33:40.718Z,98073.56
2023-05-11T14:37:58.221Z,98069.09
2023-05-11T14:42:16.062Z,98057.19
2023-05-11T14:46:33.678Z,98043.16
2023-05-11T14:50:51.265Z,98069.81
2023-05-11T14:55:09.265Z,98057.50
2023-05-11T14:59:27.404Z,98048.44
2023-05-11T15:03:45.106Z,98032.75
2023-05-11T15:08:02.896Z,98041.81
2023-05-11T15:12:21.078Z,98032.66
2023-05-11T15:16:38.949Z,98030.78
2023-05-11T15:20:56.568Z,98026.88
2023-05-11T15:25:14.631Z,98030.81
2023-05-11T15:29:32.918Z,98031.88
2023-05-11T15:33:50.724Z,98045.59
2023-05-11T15:38:08.367Z,98039.66
2023-05-11T15:42:26.061Z,98035.94
2023-05-11T15:46:43.830Z,98037.84
2023-05-11T15:51:01.489Z,98036.59
2023-05-11T15:55:19.296Z,98034.94
2023-05-11T15:59:38.164Z,98037.16
2023-05-11T16:03:56.757Z,98036.38
2023-05-11T16:08:14.799Z,98037.88
2023-05-11T16:12:32.516Z,98040.75
2023-05-11T16:16:50.219Z,98029.78
2023-05-11T16:21:08.661Z,98032.66
2023-05-11T16:25:26.320Z,98038.28
2023-05-11T16:29:44.059Z,98028.97
2023-05-11T16:34:01.665Z,98026.50
2023-05-11T16:38:22.553Z,98037.19
2023-05-11T16:42:40.227Z,98034.00
2023-05-11T16:46:58.701Z,98042.16
2023-05-11T16:51:15.994Z,98037.97
2023-05-11T16:55:33.695Z,98038.13
2023-05-11T16:59:51.918Z,98036.94
2023-05-11T17:04:10.600Z,98037.97
2023-05-11T17:08:28.586Z,98029.56
2023-05-11T17:12:47.048Z,98029.34
2023-05-11T17:17:07.021Z,98036.47
2023-05-11T17:21:24.816Z,98043.06
2023-05-11T17:25:44.248Z,98038.72
2023-05-11T17:30:02.256Z,98038.00
2023-05-11T17:34:21.472Z,98048.13
2023-05-11T17:38:40.754Z,98049.44
2023-05-11T17:42:58.263Z,98052.72
2023-05-11T17:47:16.015Z,98055.16
2023-05-11T17:51:33.741Z,98057.03
2023-05-11T17:55:53.349Z,98058.16
2023-05-11T18:00:11.743Z,98065.03
2023-05-11T18:04:30.396Z,98071.34
2023-05-11T18:08:48.855Z,98067.63
2023-05-11T18:13:07.862Z,98070.38
2023-05-11T18:17:25.973Z,98076.75
2023-05-11T18:21:43.584Z,98082.72
2023-05-11T18:26:01.105Z,98086.38
2023-05-11T18:30:19.037Z,98094.03
2023-05-11T18:34:39.039Z,98089.88
2023-05-11T18:38:57.454Z,98098.06
2023-05-11T18:43:15.096Z,98101.34
2023-05-11T18:47:36.522Z,98106.69
2023-05-11T18:51:54.264Z,98109.72
2023-05-11T18:56:12.255Z,98103.28
2023-05-11T19:00:29.794Z,98115.53
2023-05-11T19:04:48.104Z,98112.66
2023-05-11T19:09:06.020Z,98115.41
2023-05-11T19:13:23.712Z,98122.22
2023-05-11T19:17:41.672Z,98126.31
2023-05-11T19:21:59.712Z,98136.16
2023-05-11T19:26:17.390Z,98143.09
2023-05-11T19:30:35.015Z,98138.13
2023-05-11T19:34:52.547Z,98146.47
2023-05-11T19:39:10.328Z,98144.00
2023-05-11T19:43:27.789Z,98138.81
2023-05-11T19:47:45.422Z,98138.22
2023-05-11T19:52:03.156Z,98141.50
2023-05-11T19:56:21.981Z,98142.09
2023-05-11T20:00:41.502Z,98149.59
2023-05-11T20:05:00.392Z,98151.16
2023-05-11T20:09:18.038Z,98148.09
2023-05-11T20:13:35.834Z,98149.31
2023-05-11T20:17:53.434Z,98151.94
2023-05-11T20:22:11.104Z,98157.50
2023-05-11T20:26:28.777Z,98160.44
2023-05-11T20:30:46.918Z,98154.31
2023-05-11T20:35:05.847Z,98152.88
2023-05-11T20:39:23.597Z,98155.00
2023-05-11T20:43:40.649Z,98152.28
2023-05-11T20:47:58.523Z,98157.41
2023-05-11T20:52:17.774Z,98159.78
2023-05-11T20:56:35.901Z,98161.59
2023-05-11T21:00:53.491Z,98160.00
2023-05-11T21:05:12.733Z,98152.53
2023-05-11T21:09:48.451Z,98146.84
2023-05-11T21:14:06.198Z,98154.44
2023-05-11T21:18:23.743Z,98156.38
2023-05-11T21:22:41.583Z,98153.41
2023-05-11T21:26:59.920Z,98161.38
2023-05-11T21:31:17.968Z,98160.56
2023-05-11T21:35:35.704Z,98165.34
2023-05-11T21:39:53.571Z,98162.28
2023-05-11T21:44:11.302Z,98163.09
2023-05-11T21:48:29.564Z,98164.31
2023-05-11T21:52:47.431Z,98158.91
2023-05-11T21:57:05.945Z,98166.13
2023-05-11T22:01:23.755Z,98161.84
2023-05-11T22:05:41.800Z,98162.97
2023-05-11T22:09:59.424Z,98166.03
2023-05-11T22:14:17.240Z,98165.69
2023-05-11T22:18:34.830Z,98165.81
2023-05-11T22:22:52.678Z,98167.28
2023-05-11T22:27:15.556Z,98165.16
2023-05-11T22:31:33.342Z,98163.31
2023-05-11T22:35:51.205Z,98177.63
2023-05-11T22:40:10.440Z,98167.97
2023-05-11T22:44:28.570Z,98179.19
2023-05-11T22:48:46.122Z,98175.78
2023-05-11T22:53:03.785Z,98178.94
2023-05-11T22:57:22.365Z,98176.25
2023-05-11T23:01:40.043Z,98169.84
2023-05-11T23:05:58.931Z,98176.53
2023-05-11T23:10:17.095Z,98181.25
2023-05-11T23:14:35.291Z,98172.84
2023-05-11T23:18:52.935Z,98170.09
2023-05-11T23:23:10.733Z,98165.47
2023-05-11T23:27:28.788Z,98166.69
2023-05-11T23:31:46.733Z,98161.38
2023-05-11T23:36:04.452Z,98155.47
2023-05-11T23:40:22.833Z,98147.66
2023-05-11T23:44:40.879Z,98153.31
2023-05-11T23:48:58.761Z,98147.06
2023-05-11T23:53:16.268Z,98140.28
2023-05-11T23:57:37.354Z,98149.56
